Time;durP1;ratioP1;P1;durP2;ratioP2;P2;SDS_P1;SDS_P2;PMS_P1;PMS_P2;Temp;Humidity;BMP_temperature;BMP_pressure;BME280_temperature;BME280_humidity;BME280_pressure;Samples;Min_cycle;Max_cycle;Signal;HPM_P1;HPM_P2
2022/11/09 00:00:47;;;;;;;7.45;1.30;;;;;;;9.09;89.97;98525.88;4986559;28;20046;-42
2022/11/09 00:03:19;;;;;;;3.97;1.30;;;;;;;9.07;89.78;98525.47;4976715;28;20512;-42
2022/11/09 00:05:57;;;;;;;9.60;1.52;;;;;;;9.06;89.76;98529.41;4985495;28;20050;-42
2022/11/09 00:08:25;;;;;;;6.15;1.58;;;;;;;9.05;89.95;98530.56;4979664;28;20105;-45
2022/11/09 00:10:52;;;;;;;10.05;1.88;;;;;;;9.05;89.96;98541.63;4994168;28;20149;-44
2022/11/09 00:13:20;;;;;;;9.57;1.55;;;;;;;9.06;90.04;98537.69;4981124;28;20055;-43
2022/11/09 00:15:47;;;;;;;9.65;2.58;;;;;;;9.06;89.99;98537.69;4983560;28;20510;-48
2022/11/09 00:18:14;;;;;;;8.77;1.60;;;;;;;9.06;90.14;98545.16;4985027;28;20146;-42
2022/11/09 00:20:42;;;;;;;7.35;1.65;;;;;;;9.06;89.92;98554.25;4989070;28;20408;-44
2022/11/09 00:23:14;;;;;;;9.38;2.10;;;;;;;9.04;89.86;98559.38;4988283;28;20055;-42
2022/11/09 00:25:42;;;;;;;6.07;1.55;;;;;;;9.02;89.99;98560.94;4985691;28;20043;-42
2022/11/09 00:28:08;;;;;;;8.20;2.35;;;;;;;9.02;90.01;98560.94;4991426;28;20078;-41
2022/11/09 00:30:39;;;;;;;8.60;2.20;;;;;;;9.00;89.98;98555.03;4985532;28;20042;-41
2022/11/09 00:33:07;;;;;;;10.50;1.80;;;;;;;9.01;89.98;98556.59;4991114;28;20460;-42
2022/11/09 00:35:37;;;;;;;4.95;0.98;;;;;;;9.00;90.04;98561.31;4991211;28;20078;-45
2022/11/09 00:38:03;;;;;;;6.78;1.55;;;;;;;9.00;90.02;98557.78;4984821;28;20147;-43
2022/11/09 00:40:30;;;;;;;7.35;2.55;;;;;;;9.00;90.29;98564.06;4989861;28;20440;-41
2022/11/09 00:42:57;;;;;;;7.22;1.30;;;;;;;8.99;89.99;98551.47;4987989;28;20120;-42
2022/11/09 00:45:23;;;;;;;14.13;2.63;;;;;;;9.00;90.05;98546.75;4987397;28;20577;-44
2022/11/09 00:47:50;;;;;;;3.10;1.63;;;;;;;9.01;90.13;98560.13;4988360;28;20034;-42
2022/11/09 00:50:17;;;;;;;5.05;1.20;;;;;;;9.01;90.13;98551.06;4986449;28;20392;-42
2022/11/09 00:52:43;;;;;;;6.97;1.25;;;;;;;9.04;90.07;98564.09;4990732;28;20050;-42
2022/11/09 00:55:10;;;;;;;7.15;1.83;;;;;;;9.04;89.97;98559.38;4984358;28;20480;-45
2022/11/09 00:57:36;;;;;;;4.05;1.15;;;;;;;9.04;90.10;98566.84;4985412;28;20042;-41
2022/11/09 01:00:04;;;;;;;6.57;1.90;;;;;;;9.05;89.98;98568.44;4987684;28;20057;-48
2022/11/09 01:02:30;;;;;;;5.78;1.50;;;;;;;9.05;89.83;98566.44;4988131;28;20046;-46
2022/11/09 01:04:58;;;;;;;5.75;1.45;;;;;;;9.06;89.91;98570.81;4989284;28;20050;-44
2022/11/09 01:07:25;;;;;;;4.28;1.40;;;;;;;9.04;89.76;98575.94;4988156;28;20054;-44
2022/11/09 01:09:52;;;;;;;8.30;1.30;;;;;;;9.02;89.74;98578.28;4988066;28;20050;-45
2022/11/09 01:12:18;;;;;;;4.35;1.33;;;;;;;9.01;89.87;98587.75;4979104;28;20050;-42
2022/11/09 01:14:45;;;;;;;6.70;1.67;;;;;;;9.00;89.76;98591.66;4985306;28;20050;-41
2022/11/09 01:17:12;;;;;;;6.45;1.83;;;;;;;8.99;89.61;98590.09;4986700;28;20042;-42
2022/11/09 01:19:38;;;;;;;3.05;1.13;;;;;;;8.98;89.59;98596.78;4990938;28;20046;-44
2022/11/09 01:22:05;;;;;;;9.48;1.73;;;;;;;8.96;89.69;98607.44;4984764;28;20480;-44
2022/11/09 01:24:32;;;;;;;7.50;2.08;;;;;;;8.94;89.55;98606.22;4988693;28;20568;-42
2022/11/09 01:26:58;;;;;;;14.70;3.08;;;;;;;8.92;89.60;98603.06;4988719;28;20698;-41
2022/11/09 01:29:25;;;;;;;6.28;1.60;;;;;;;8.90;89.47;98606.22;4987706;28;20054;-42
2022/11/09 01:31:54;;;;;;;6.82;1.92;;;;;;;8.87;89.64;98618.00;4987444;28;20057;-47
2022/11/09 01:34:21;;;;;;;7.22;1.45;;;;;;;8.85;89.52;98622.34;4986782;28;20054;-42
2022/11/09 01:36:51;;;;;;;5.68;1.10;;;;;;;8.83;89.46;98614.44;4985905;28;20129;-42
2022/11/09 01:39:19;;;;;;;3.55;1.27;;;;;;;8.81;89.43;98627.84;4988197;28;20042;-42
2022/11/09 01:41:46;;;;;;;4.20;0.88;;;;;;;8.79;89.40;98635.69;4989218;28;20042;-42
2022/11/09 01:44:14;;;;;;;10.27;1.02;;;;;;;8.79;89.16;98634.94;4985822;28;20041;-41
2022/11/09 01:46:58;;;;;;;8.35;1.25;;;;;;;8.77;89.44;98637.25;4987006;28;20046;-44
2022/11/09 01:49:44;;;;;;;9.73;1.20;;;;;;;8.76;89.34;98638.44;4984694;28;20571;-47
2022/11/09 01:52:10;;;;;;;6.85;1.20;;;;;;;8.74;89.23;98640.78;4989376;28;20034;-42
2022/11/09 01:54:47;;;;;;;11.02;1.52;;;;;;;8.72;89.34;98643.94;4982212;28;20049;-42
2022/11/09 01:57:24;;;;;;;5.13;1.98;;;;;;;8.68;89.30;98651.41;4986039;28;20054;-48
2022/11/09 01:59:57;;;;;;;3.63;1.08;;;;;;;8.66;89.30;98650.97;4985210;28;20043;-43
2022/11/09 02:02:23;;;;;;;5.43;2.42;;;;;;;8.67;89.29;98660.84;4986489;28;20439;-43
2022/11/09 02:05:04;;;;;;;5.25;1.58;;;;;;;8.64;89.30;98650.56;4985093;28;20054;-44
2022/11/09 02:07:32;;;;;;;4.45;0.95;;;;;;;8.62;89.30;98654.91;4984515;28;20120;-41
2022/11/09 02:10:38;;;;;;;4.70;1.08;;;;;;;8.60;89.28;98660.00;4988310;28;20066;-45
2022/11/09 02:13:07;;;;;;;12.35;2.25;;;;;;;8.58;89.30;98668.66;4964874;28;20054;-44
2022/11/09 02:15:35;;;;;;;2.80;0.85;;;;;;;8.57;89.36;98661.56;4971979;28;20515;-45
2022/11/09 02:18:08;;;;;;;1.45;0.63;;;;;;;8.56;89.33;98665.47;4982318;28;20136;-42
2022/11/09 02:20:49;;;;;;;4.15;0.95;;;;;;;8.54;89.34;98665.09;4987439;28;20057;-43
2022/11/09 02:23:17;;;;;;;5.75;1.52;;;;;;;8.52;89.58;98670.19;4985716;28;20121;-42
2022/11/09 02:25:50;;;;;;;7.00;1.38;;;;;;;8.51;89.29;98674.91;4987880;28;20038;-44
2022/11/09 02:28:17;;;;;;;4.07;0.80;;;;;;;8.51;89.32;98679.63;4985357;28;20065;-43
2022/11/09 02:30:49;;;;;;;6.85;1.52;;;;;;;8.49;89.58;98682.78;4989156;28;20141;-45
2022/11/09 02:33:15;;;;;;;6.07;1.40;;;;;;;8.50;89.63;98686.31;4986850;28;20042;-42
2022/11/09 02:35:43;;;;;;;6.97;1.20;;;;;;;8.51;89.59;98693.41;4988750;28;20104;-42
2022/11/09 02:38:11;;;;;;;4.40;1.17;;;;;;;8.51;89.51;98701.69;4986941;28;20404;-42
2022/11/09 02:40:41;;;;;;;5.28;1.40;;;;;;;8.50;89.43;98700.91;4989466;28;20046;-43
2022/11/09 02:43:09;;;;;;;7.18;2.38;;;;;;;8.49;89.72;98704.84;4996685;28;20054;-46
2022/11/09 02:45:36;;;;;;;15.77;1.60;;;;;;;8.47;89.59;98706.41;4985042;28;20046;-42
2022/11/09 02:48:03;;;;;;;8.60;1.40;;;;;;;8.45;89.73;98712.28;4978165;28;20080;-42
2022/11/09 02:50:30;;;;;;;7.53;1.20;;;;;;;8.46;89.80;98715.84;4989102;28;20485;-43
2022/11/09 02:52:56;;;;;;;6.55;1.17;;;;;;;8.46;89.92;98721.34;4989711;28;20046;-42
2022/11/09 02:55:23;;;;;;;11.43;1.23;;;;;;;8.44;89.99;98726.47;4986321;28;20042;-43
2022/11/09 02:57:50;;;;;;;4.90;1.05;;;;;;;8.44;90.13;98730.00;4988128;28;20046;-44
2022/11/09 03:02:52;;;;;;;11.30;1.90;;;;;;;8.44;90.38;98737.50;4941544;23;20407;-42
2022/11/09 03:05:19;;;;;;;11.05;1.52;;;;;;;8.44;90.31;98748.53;5001006;28;20137;-42
2022/11/09 03:07:45;;;;;;;4.15;1.17;;;;;;;8.43;90.35;98747.72;5010221;28;20046;-43
2022/11/09 03:10:12;;;;;;;7.88;1.48;;;;;;;8.42;90.43;98748.88;5011271;28;20061;-41
2022/11/09 03:12:39;;;;;;;14.80;2.78;;;;;;;8.41;90.71;98758.34;5010631;28;20042;-41
2022/11/09 03:15:07;;;;;;;12.25;1.15;;;;;;;8.43;90.65;98761.50;5006724;28;20038;-43
2022/11/09 03:17:34;;;;;;;7.70;2.15;;;;;;;8.41;90.59;98763.84;5005596;28;20054;-44
2022/11/09 03:20:01;;;;;;;12.88;1.70;;;;;;;8.42;90.72;98759.91;5009156;28;20062;-43
2022/11/09 03:22:28;;;;;;;10.93;2.72;;;;;;;8.41;90.72;98766.63;5008794;28;20054;-47
2022/11/09 03:24:55;;;;;;;11.13;1.55;;;;;;;8.41;90.74;98769.38;5007126;28;20526;-42
2022/11/09 03:27:21;;;;;;;8.68;1.13;;;;;;;8.41;90.87;98768.56;5011804;28;20061;-42
2022/11/09 03:29:48;;;;;;;10.88;1.80;;;;;;;8.42;90.87;98770.13;5011359;28;20041;-43
2022/11/09 03:32:14;;;;;;;8.38;2.33;;;;;;;8.41;90.95;98768.56;5011987;28;20049;-42
2022/11/09 03:34:41;;;;;;;11.95;1.40;;;;;;;8.42;91.02;98770.13;5011192;28;20045;-42
2022/11/09 03:37:08;;;;;;;5.07;1.42;;;;;;;8.41;91.14;98772.13;5011720;28;20507;-42
2022/11/09 03:39:34;;;;;;;8.93;1.10;;;;;;;8.41;91.06;98774.09;5027008;28;20491;-42
2022/11/09 03:42:01;;;;;;;13.05;1.30;;;;;;;8.40;91.16;98762.25;5010008;28;20050;-42
2022/11/09 03:44:28;;;;;;;7.28;1.60;;;;;;;8.39;91.15;98774.44;5011119;28;20045;-42
2022/11/09 03:46:54;;;;;;;6.72;1.25;;;;;;;8.39;91.10;98773.69;5010899;28;20431;-47
2022/11/09 03:49:22;;;;;;;12.90;1.70;;;;;;;8.36;91.23;98778.00;5011757;28;20073;-48
2022/11/09 03:51:50;;;;;;;9.70;2.13;;;;;;;8.37;91.14;98778.75;5011576;28;20144;-44
2022/11/09 03:54:16;;;;;;;10.30;1.98;;;;;;;8.35;91.21;98776.41;5010694;28;20060;-42
2022/11/09 03:56:43;;;;;;;5.57;1.20;;;;;;;8.36;91.28;98785.47;5008568;28;20050;-46
2022/11/09 03:59:10;;;;;;;9.23;1.30;;;;;;;8.33;91.44;98789.78;5007938;28;20034;-45
2022/11/09 04:01:36;;;;;;;12.23;1.40;;;;;;;8.33;91.41;98792.53;5020245;28;20050;-42
2022/11/09 04:04:03;;;;;;;5.40;0.95;;;;;;;8.32;91.27;98784.63;5009650;28;20553;-42
2022/11/09 04:06:30;;;;;;;5.47;1.10;;;;;;;8.29;91.39;98788.13;5008806;28;20052;-42
2022/11/09 04:08:57;;;;;;;9.77;1.30;;;;;;;8.28;91.42;98792.06;5008918;28;20966;-43
2022/11/09 04:11:23;;;;;;;9.48;1.42;;;;;;;8.27;91.61;98790.47;5009119;28;20629;-43
2022/11/09 04:13:50;;;;;;;6.57;1.08;;;;;;;8.26;91.60;98802.66;5004878;28;20038;-42
2022/11/09 04:16:17;;;;;;;13.80;1.50;;;;;;;8.26;91.69;98797.91;5006072;28;20061;-43
2022/11/09 04:18:43;;;;;;;7.10;1.30;;;;;;;8.25;91.62;98814.84;5007254;28;20042;-44
2022/11/09 04:21:10;;;;;;;7.40;0.98;;;;;;;8.25;91.61;98812.09;5006830;28;20042;-45
2022/11/09 04:23:37;;;;;;;11.43;2.40;;;;;;;8.24;91.58;98824.28;5007303;28;20121;-46
2022/11/09 04:26:03;;;;;;;9.93;1.73;;;;;;;8.23;91.63;98834.53;5005842;28;20076;-48
2022/11/09 04:28:30;;;;;;;7.97;1.13;;;;;;;8.21;91.63;98825.81;5009364;28;20050;-43
2022/11/09 04:31:00;;;;;;;7.72;1.58;;;;;;;8.22;91.54;98848.66;5007987;28;20061;-43
2022/11/09 04:33:27;;;;;;;6.50;1.20;;;;;;;8.19;91.53;98841.16;5010163;28;20038;-42
2022/11/09 04:36:03;;;;;;;7.03;2.75;;;;;;;8.17;91.68;98846.25;5008584;28;20144;-44
2022/11/09 04:38:30;;;;;;;20.40;2.63;;;;;;;8.16;91.80;98855.66;5006675;28;20042;-46
2022/11/09 04:41:02;;;;;;;9.40;1.00;;;;;;;8.15;91.64;98859.63;4991702;28;20060;-42
2022/11/09 04:43:29;;;;;;;5.57;1.37;;;;;;;8.13;91.86;98867.47;5008119;28;20041;-42
2022/11/09 04:45:59;;;;;;;5.88;1.88;;;;;;;8.13;91.80;98856.44;5004010;28;20046;-42
2022/11/09 04:48:25;;;;;;;6.57;1.65;;;;;;;8.13;91.92;98870.22;5008433;28;20041;-42
2022/11/09 04:51:01;;;;;;;6.63;1.20;;;;;;;8.11;91.89;98876.09;5008229;28;20050;-44
2022/11/09 04:53:28;;;;;;;10.15;1.40;;;;;;;8.11;91.84;98872.53;5008364;28;20076;-48
2022/11/09 04:55:56;;;;;;;9.73;0.98;;;;;;;8.12;91.87;98871.38;5007265;28;20061;-42
2022/11/09 04:58:23;;;;;;;7.88;1.55;;;;;;;8.12;92.22;98861.16;5009123;28;20041;-42
2022/11/09 05:00:51;;;;;;;5.88;2.22;;;;;;;8.13;91.86;98873.75;5007982;28;20124;-44
2022/11/09 05:03:18;;;;;;;8.50;1.23;;;;;;;8.14;92.01;98869.84;5007467;28;20402;-43
2022/11/09 05:05:45;;;;;;;7.70;1.00;;;;;;;8.16;92.14;98873.00;5007465;28;20042;-43
2022/11/09 05:08:14;;;;;;;8.30;1.10;;;;;;;8.18;92.07;98869.91;5009545;28;20053;-42
2022/11/09 05:10:40;;;;;;;5.20;1.48;;;;;;;8.21;91.90;98885.66;5006499;28;20061;-42
2022/11/09 05:13:10;;;;;;;7.03;1.35;;;;;;;8.22;91.86;98868.75;5007925;28;20494;-42
2022/11/09 05:15:37;;;;;;;6.38;1.30;;;;;;;8.22;91.82;98871.53;5007892;28;20084;-43
2022/11/09 05:18:04;;;;;;;5.28;1.02;;;;;;;8.24;91.66;98868.38;5009155;28;20061;-43
2022/11/09 05:20:31;;;;;;;6.85;0.80;;;;;;;8.23;91.38;98862.09;5009796;28;20046;-43
2022/11/09 05:25:45;;;;;;;3.95;0.95;;;;;;;8.28;91.31;98864.53;5000612;28;20388;-47
2022/11/09 05:28:13;;;;;;;6.38;0.90;;;;;;;8.32;91.03;98870.09;5009319;28;20046;-42
2022/11/09 05:30:40;;;;;;;6.55;0.93;;;;;;;8.32;90.91;98870.88;5010169;28;20160;-42
2022/11/09 05:33:06;;;;;;;5.15;0.93;;;;;;;8.31;90.75;98885.06;5008659;28;20042;-44
2022/11/09 05:35:33;;;;;;;4.78;1.25;;;;;;;8.27;90.59;98895.22;5009371;28;20065;-42
2022/11/09 05:37:59;;;;;;;3.85;1.17;;;;;;;8.25;90.45;98894.78;5009679;28;20499;-48
2022/11/09 05:40:26;;;;;;;3.53;1.25;;;;;;;8.23;90.48;98889.66;5009415;28;20076;-42
2022/11/09 05:42:54;;;;;;;3.88;0.80;;;;;;;8.21;90.33;98893.94;5008785;28;20042;-41
2022/11/09 05:45:21;;;;;;;2.95;0.70;;;;;;;8.17;90.26;98899.41;5008265;28;20034;-42
2022/11/09 05:48:08;;;;;;;8.93;1.48;;;;;;;8.17;90.10;98896.66;5008663;28;22198;-43
2022/11/09 05:50:36;;;;;;;6.45;0.68;;;;;;;8.15;90.10;98903.72;5009232;28;20045;-42
2022/11/09 05:53:02;;;;;;;2.97;0.60;;;;;;;8.14;90.01;98907.63;5007253;28;20104;-44
2022/11/09 05:55:29;;;;;;;4.85;0.80;;;;;;;8.13;90.16;98919.84;5003901;28;20439;-44
2022/11/09 05:57:56;;;;;;;3.47;0.68;;;;;;;8.12;90.13;98921.78;5002077;28;20054;-42
2022/11/09 06:00:22;;;;;;;8.60;0.80;;;;;;;8.09;90.21;98921.75;4999567;28;20253;-51
2022/11/09 06:02:49;;;;;;;7.22;2.20;;;;;;;8.10;90.08;98923.34;5005463;28;20137;-45
2022/11/09 06:05:17;;;;;;;3.92;0.88;;;;;;;8.11;90.26;98927.66;5008568;28;20058;-47
2022/11/09 06:07:43;;;;;;;5.65;1.88;;;;;;;8.12;90.41;98938.34;5003607;28;20061;-43
2022/11/09 06:10:10;;;;;;;10.43;1.00;;;;;;;8.12;90.42;98943.03;5008455;28;20492;-44
2022/11/09 06:12:37;;;;;;;6.28;0.90;;;;;;;8.10;90.56;98937.13;5006336;28;20050;-43
2022/11/09 06:15:04;;;;;;;7.93;1.52;;;;;;;8.10;90.81;98953.66;5007051;28;20046;-45
2022/11/09 06:17:31;;;;;;;6.57;0.93;;;;;;;8.10;90.97;98945.38;5003393;28;20133;-43
2022/11/09 06:19:58;;;;;;;5.70;1.23;;;;;;;8.09;90.90;98950.09;5006384;28;20396;-47
2022/11/09 06:22:24;;;;;;;5.60;1.50;;;;;;;8.09;90.85;98954.81;5003773;28;20045;-43
2022/11/09 06:24:51;;;;;;;3.42;0.98;;;;;;;8.08;91.15;98958.72;5012871;28;20046;-46
2022/11/09 06:27:18;;;;;;;4.82;1.70;;;;;;;8.07;91.29;98968.97;5005594;28;20492;-42
2022/11/09 06:29:44;;;;;;;5.95;1.15;;;;;;;8.06;91.36;98953.59;5009184;28;20145;-42
2022/11/09 06:32:11;;;;;;;4.95;1.23;;;;;;;8.06;91.42;98967.38;5008080;28;20050;-44
2022/11/09 06:34:38;;;;;;;4.95;1.00;;;;;;;8.07;91.35;98973.69;4988737;28;20041;-42
2022/11/09 06:37:04;;;;;;;6.82;1.10;;;;;;;8.07;91.29;98973.69;5009041;28;20144;-42
2022/11/09 06:39:31;;;;;;;14.32;3.03;;;;;;;8.07;91.33;98973.69;5008375;28;20464;-43
2022/11/09 06:41:57;;;;;;;6.82;1.33;;;;;;;8.06;91.46;98978.41;5008320;28;20708;-46
2022/11/09 06:44:24;;;;;;;5.55;2.25;;;;;;;8.10;91.37;98978.47;5007383;28;20049;-42
2022/11/09 06:46:51;;;;;;;6.90;1.30;;;;;;;8.11;91.29;98983.59;5008023;28;20487;-43
2022/11/09 06:49:17;;;;;;;16.25;4.93;;;;;;;8.13;91.37;98972.97;5008362;28;20042;-42
2022/11/09 06:51:44;;;;;;;6.50;1.25;;;;;;;8.17;91.19;98984.06;5008812;28;20046;-43
2022/11/09 06:54:10;;;;;;;9.93;1.25;;;;;;;8.18;91.23;98991.94;5005178;28;20046;-42
2022/11/09 06:56:37;;;;;;;1.88;1.50;;;;;;;8.20;91.17;98994.34;5005479;28;20049;-43
2022/11/09 06:59:04;;;;;;;10.43;1.63;;;;;;;8.19;91.23;98990.78;5005459;28;20042;-42
2022/11/09 07:01:30;;;;;;;4.55;1.00;;;;;;;8.19;91.21;99003.78;5003883;28;20499;-42
2022/11/09 07:03:57;;;;;;;4.53;1.02;;;;;;;8.18;91.10;99013.22;5005781;28;20058;-45
2022/11/09 07:06:24;;;;;;;8.80;0.93;;;;;;;8.18;91.17;99010.47;5004342;28;20045;-42
2022/11/09 07:08:54;;;;;;;4.05;1.08;;;;;;;8.17;91.18;99017.16;5006861;28;20061;-45
2022/11/09 07:11:21;;;;;;;8.93;1.25;;;;;;;8.17;91.16;99030.94;5004063;28;20144;-45
2022/11/09 07:13:48;;;;;;;4.43;1.10;;;;;;;8.15;90.86;99025.78;4994580;28;20148;-48
2022/11/09 07:16:21;;;;;;;5.47;1.20;;;;;;;8.13;91.20;99038.38;5004560;28;20395;-43
2022/11/09 07:18:48;;;;;;;5.38;1.00;;;;;;;8.11;90.99;99044.22;5001072;28;20720;-44
2022/11/09 07:21:15;;;;;;;6.90;0.82;;;;;;;8.11;91.29;99040.66;5004975;28;20061;-41
2022/11/09 07:23:42;;;;;;;4.20;0.70;;;;;;;8.12;91.24;99053.28;5003846;28;20060;-44
2022/11/09 07:26:09;;;;;;;7.45;1.00;;;;;;;8.11;91.15;99057.22;5003340;28;20136;-45
2022/11/09 07:28:35;;;;;;;8.60;1.50;;;;;;;8.13;91.15;99060.41;5001030;28;20042;-42
2022/11/09 07:31:02;;;;;;;8.20;1.38;;;;;;;8.12;91.12;99067.06;5001888;28;20380;-41
2022/11/09 07:33:32;;;;;;;7.22;1.40;;;;;;;8.11;91.16;99065.47;4989906;28;20416;-44
2022/11/09 07:36:00;;;;;;;3.35;1.20;;;;;;;8.12;91.13;99078.09;5003734;28;20322;-43
2022/11/09 07:38:28;;;;;;;6.43;0.93;;;;;;;8.14;91.24;99086.78;5005896;28;20041;-43
2022/11/09 07:41:01;;;;;;;3.17;0.50;;;;;;;8.14;91.08;99084.84;5007688;28;20053;-42
2022/11/09 07:43:28;;;;;;;6.13;1.30;;;;;;;8.16;91.11;99092.72;5007254;28;20048;-42
2022/11/09 07:45:55;;;;;;;9.60;1.05;;;;;;;8.17;91.29;99088.81;5007248;28;20064;-42
2022/11/09 07:48:22;;;;;;;5.00;0.60;;;;;;;8.18;90.95;99090.41;5011393;28;20069;-46
2022/11/09 07:50:49;;;;;;;3.47;0.90;;;;;;;8.17;90.91;99116.38;5010936;28;20042;-42
2022/11/09 07:53:16;;;;;;;4.10;1.67;;;;;;;8.19;91.16;99123.13;5009388;28;20038;-43
2022/11/09 07:55:43;;;;;;;12.00;2.00;;;;;;;8.20;91.04;99121.16;5011082;28;20085;-42
2022/11/09 07:58:12;;;;;;;4.38;0.80;;;;;;;8.23;90.90;99131.44;4993839;28;20049;-42
2022/11/09 08:00:40;;;;;;;5.22;0.80;;;;;;;8.24;90.87;99122.00;5010533;28;20046;-42
2022/11/09 08:03:08;;;;;;;6.43;1.10;;;;;;;8.26;90.86;99145.28;5010649;28;20046;-42
2022/11/09 08:05:35;;;;;;;2.20;0.90;;;;;;;8.29;90.65;99146.53;5012269;28;20108;-43
2022/11/09 08:08:05;;;;;;;4.07;0.60;;;;;;;8.31;90.56;99144.22;4996375;28;20050;-44
2022/11/09 08:10:33;;;;;;;6.00;1.95;;;;;;;8.32;90.19;99151.31;5004413;28;20042;-42
2022/11/09 08:13:02;;;;;;;8.38;0.73;;;;;;;8.30;90.18;99150.88;5006868;28;20674;-41
2022/11/09 08:15:29;;;;;;;4.10;0.57;;;;;;;8.31;89.73;99166.28;5001906;28;20053;-43
2022/11/09 08:18:01;;;;;;;2.55;0.57;;;;;;;8.29;89.50;99163.06;5010849;28;20050;-42
2022/11/09 08:20:29;;;;;;;4.32;0.55;;;;;;;8.27;89.39;99190.22;5010544;28;20085;-43
2022/11/09 08:22:56;;;;;;;1.25;0.50;;;;;;;8.26;88.99;99194.13;5008443;28;20207;-42
2022/11/09 08:25:29;;;;;;;3.65;0.20;;;;;;;8.25;88.77;99198.03;5008627;28;20052;-42
2022/11/09 08:27:56;;;;;;;2.58;0.40;;;;;;;8.25;88.46;99200.78;5001130;28;20054;-45
2022/11/09 08:30:25;;;;;;;4.38;0.95;;;;;;;8.26;88.33;99218.94;5017275;28;20052;-44
2022/11/09 08:33:01;;;;;;;2.22;0.82;;;;;;;8.29;88.19;99245.78;5002372;28;20077;-45
2022/11/09 08:35:28;;;;;;;3.63;0.63;;;;;;;8.34;88.33;99262.06;5008466;28;20042;-42
2022/11/09 08:37:58;;;;;;;8.27;0.80;;;;;;;8.42;88.38;99269.25;5009473;28;20054;-43
2022/11/09 08:40:25;;;;;;;2.08;0.47;;;;;;;8.49;88.30;99283.19;5015824;28;20054;-43
2022/11/09 08:42:52;;;;;;;8.55;1.10;;;;;;;8.44;88.20;99284.31;5018635;28;20046;-42
2022/11/09 08:45:19;;;;;;;9.30;0.90;;;;;;;8.36;88.53;99279.81;5010738;28;20738;-42
2022/11/09 08:47:47;;;;;;;4.05;0.90;;;;;;;8.27;88.73;99295.00;5007882;28;20484;-40
2022/11/09 08:50:14;;;;;;;3.20;0.73;;;;;;;8.22;89.14;99287.00;5018429;28;20057;-41
2022/11/09 08:52:41;;;;;;;6.65;0.82;;;;;;;8.17;89.33;99288.09;5008571;28;20049;-42
2022/11/09 08:55:08;;;;;;;3.38;0.40;;;;;;;8.14;89.94;99299.03;5004239;28;20690;-48
2022/11/09 08:57:35;;;;;;;3.90;0.50;;;;;;;8.16;90.16;99299.47;5007488;28;20049;-42
2022/11/09 09:00:03;;;;;;;4.55;0.85;;;;;;;8.19;90.57;99296.78;5005627;28;20053;-42
2022/11/09 09:02:30;;;;;;;3.50;0.82;;;;;;;8.21;90.63;99307.44;5003947;28;20073;-43
2022/11/09 09:04:56;;;;;;;4.10;1.05;;;;;;;8.20;90.69;99297.59;5005020;28;20499;-42
2022/11/09 09:07:23;;;;;;;3.03;0.70;;;;;;;8.19;90.94;99312.53;5007314;28;20053;-42
2022/11/09 09:09:50;;;;;;;3.63;0.40;;;;;;;8.19;91.15;99309.75;5008582;28;20546;-44
2022/11/09 09:12:17;;;;;;;2.08;0.50;;;;;;;8.20;91.39;99297.59;5001804;28;20053;-43
2022/11/09 09:14:44;;;;;;;7.38;2.20;;;;;;;8.19;91.49;99301.50;5005475;28;20046;-43
2022/11/09 09:17:11;;;;;;;6.07;1.30;;;;;;;8.20;91.28;99322.41;5009842;28;20435;-45
2022/11/09 09:19:37;;;;;;;1.85;0.98;;;;;;;8.21;91.75;99315.72;5009948;28;20042;-44
2022/11/09 09:22:04;;;;;;;4.10;2.30;;;;;;;8.21;91.95;99321.22;5006133;28;20377;-45
2022/11/09 09:24:31;;;;;;;3.70;1.02;;;;;;;8.21;92.03;99330.28;5008334;28;20056;-42
2022/11/09 09:26:58;;;;;;;3.30;1.38;;;;;;;8.18;92.11;99319.22;5005927;28;20145;-43
2022/11/09 09:29:25;;;;;;;6.38;0.80;;;;;;;8.14;92.12;99312.81;5007537;28;20058;-43
2022/11/09 09:31:52;;;;;;;1.38;0.45;;;;;;;8.10;92.50;99336.78;5007688;28;20050;-47
2022/11/09 09:34:19;;;;;;;1.75;0.40;;;;;;;8.06;92.50;99331.19;5004946;28;20054;-46
2022/11/09 09:36:45;;;;;;;2.42;0.63;;;;;;;8.03;92.55;99342.13;5008255;28;20492;-42
2022/11/09 09:39:14;;;;;;;2.38;0.30;;;;;;;7.95;92.69;99341.97;5008117;28;20132;-42
2022/11/09 09:42:04;;;;;;;2.30;0.43;;;;;;;7.93;92.77;99355.31;4999086;28;20053;-42
2022/11/09 09:45:04;;;;;;;2.10;0.40;;;;;;;7.91;92.95;99363.16;5004565;28;20042;-47
2022/11/09 09:47:40;;;;;;;2.00;0.57;;;;;;;7.90;93.03;99383.59;4990811;28;20127;-44
2022/11/09 09:50:19;;;;;;;2.60;0.55;;;;;;;7.94;93.48;99381.72;5008760;28;20054;-43
2022/11/09 09:53:31;;;;;;;2.15;0.90;;;;;;;8.09;93.58;99379.28;5003261;28;20050;-43
2022/11/09 09:56:27;;;;;;;4.82;2.22;;;;;;;8.17;93.39;99370.78;4998225;28;20063;-44
2022/11/09 09:59:04;;;;;;;2.50;0.80;;;;;;;8.23;93.32;99372.09;5006223;28;20453;-42
2022/11/09 10:01:42;;;;;;;6.13;0.80;;;;;;;8.27;93.22;99374.94;5000795;28;20397;-42
2022/11/09 10:04:36;;;;;;;2.50;0.63;;;;;;;8.34;93.33;99383.38;5003210;28;20400;-42
2022/11/09 10:07:18;;;;;;;3.72;0.70;;;;;;;8.38;93.27;99379.53;5003297;28;20072;-44
2022/11/09 10:10:15;;;;;;;6.15;0.65;;;;;;;8.38;93.32;99389.75;4982241;28;20096;-42
2022/11/09 10:12:57;;;;;;;2.05;0.75;;;;;;;8.37;93.51;99391.72;5002317;28;20369;-47
2022/11/09 10:15:28;;;;;;;0.63;0.50;;;;;;;8.36;93.55;99403.13;5000848;28;20058;-42
2022/11/09 10:18:27;;;;;;;4.40;0.40;;;;;;;8.40;93.82;99413.03;5005977;28;20052;-42
2022/11/09 10:21:08;;;;;;;2.63;0.50;;;;;;;8.43;93.80;99417.84;5001601;28;20051;-45
2022/11/09 10:23:51;;;;;;;6.57;0.57;;;;;;;8.48;93.98;99433.28;5001042;28;20056;-42
2022/11/09 10:26:26;;;;;;;2.53;0.55;;;;;;;8.51;93.99;99422.34;5001738;28;20089;-41
2022/11/09 10:29:01;;;;;;;2.53;0.75;;;;;;;8.54;94.16;99434.59;5003270;28;20060;-42
2022/11/09 10:31:45;;;;;;;3.80;0.57;;;;;;;8.62;94.17;99435.53;5006234;28;20448;-42
2022/11/09 10:34:22;;;;;;;5.90;0.73;;;;;;;8.64;94.24;99439.53;5007703;28;20050;-43
2022/11/09 10:37:15;;;;;;;4.07;0.70;;;;;;;8.70;94.40;99448.31;5004992;28;20053;-42
2022/11/09 10:39:51;;;;;;;4.05;1.30;;;;;;;8.73;94.42;99453.91;4992185;28;20139;-42
2022/11/09 10:42:18;;;;;;;3.25;0.70;;;;;;;8.77;94.43;99463.06;5005903;28;20061;-42
2022/11/09 10:44:44;;;;;;;6.15;0.77;;;;;;;8.81;94.11;99458.41;5006875;28;20046;-43
2022/11/09 10:47:13;;;;;;;2.45;0.60;;;;;;;8.85;94.45;99467.53;5004886;28;20050;-43
2022/11/09 10:49:40;;;;;;;5.50;0.98;;;;;;;8.89;94.49;99473.16;5005105;28;20403;-42
2022/11/09 10:52:38;;;;;;;8.38;1.58;;;;;;;8.92;94.41;99464.91;5000140;28;20046;-42
2022/11/09 10:55:22;;;;;;;6.13;1.10;;;;;;;8.95;94.37;99475.22;5003770;28;20054;-41
2022/11/09 10:58:01;;;;;;;5.28;0.90;;;;;;;8.99;94.39;99481.63;5005231;28;20488;-46
2022/11/09 11:00:28;;;;;;;3.33;0.43;;;;;;;9.05;94.41;99482.13;5002382;28;20042;-40
2022/11/09 11:02:55;;;;;;;5.28;1.08;;;;;;;9.08;94.26;99487.69;4998327;28;20504;-41
2022/11/09 11:05:28;;;;;;;3.65;1.10;;;;;;;9.14;94.30;99485.44;5005363;28;20511;-42
2022/11/09 11:07:54;;;;;;;;;;;;;;;9.17;94.24;99491.03;5008894;28;20042;-44
2022/11/09 11:10:22;;;;;;;3.72;1.20;;;;;;;9.21;94.15;99487.56;5008584;28;19931;-43
2022/11/09 11:13:18;;;;;;;3.65;1.38;;;;;;;9.25;94.15;99489.22;5011679;28;20061;-44
2022/11/09 11:15:46;;;;;;;5.28;2.20;;;;;;;9.31;94.19;99500.75;5002338;28;20139;-42
2022/11/09 11:18:22;;;;;;;3.67;1.42;;;;;;;9.33;94.04;99499.22;5008038;28;20054;-42
2022/11/09 11:21:18;;;;;;;7.78;1.70;;;;;;;9.38;94.11;99496.16;5008476;28;20045;-48
2022/11/09 11:24:11;;;;;;;12.93;2.10;;;;;;;9.42;93.87;99502.56;5005905;28;20046;-41
2022/11/09 11:26:47;;;;;;;10.32;2.22;;;;;;;9.46;94.06;99497.06;4999448;28;20411;-43
2022/11/09 11:29:22;;;;;;;6.45;1.92;;;;;;;9.51;93.96;99510.59;5000303;28;20323;-42
2022/11/09 11:31:49;;;;;;;3.28;1.65;;;;;;;9.56;94.04;99521.31;5010118;28;20053;-42
2022/11/09 11:34:15;;;;;;;5.43;1.00;;;;;;;9.62;93.95;99517.09;5005331;28;20053;-44
2022/11/09 11:37:02;;;;;;;8.68;2.63;;;;;;;9.67;93.78;99525.06;5000570;28;20506;-46
2022/11/09 11:40:05;;;;;;;6.72;1.67;;;;;;;9.72;93.68;99513.72;5008010;28;20050;-44
2022/11/09 11:42:49;;;;;;;12.32;1.58;;;;;;;9.76;93.68;99534.75;5011792;28;20042;-44
2022/11/09 11:45:31;;;;;;;12.25;4.00;;;;;;;9.82;93.68;99529.69;5022120;28;20049;-41
2022/11/09 11:48:38;;;;;;;8.40;1.95;;;;;;;9.89;93.67;99532.56;5010813;28;20324;-44
2022/11/09 11:51:10;;;;;;;6.13;1.30;;;;;;;9.95;93.47;99536.63;5008527;28;20057;-43
2022/11/09 11:54:05;;;;;;;19.50;3.15;;;;;;;10.01;93.33;99540.66;5009809;28;20058;-42
2022/11/09 11:56:45;;;;;;;7.78;1.42;;;;;;;10.12;93.09;99535.28;4999428;28;20050;-47
2022/11/09 11:59:30;;;;;;;12.93;1.90;;;;;;;10.18;92.84;99536.63;5003170;28;20058;-42
2022/11/09 12:02:35;;;;;;;8.32;1.15;;;;;;;10.21;92.57;99542.22;5008246;28;20054;-42